sensor_id;sensor_type;location;lat;lon;timestamp;pressure;altitude;pressure_sealevel;temperature;humidity
17254;BME280;32542;52.832;13.816;2022-07-19T00:01:45;101946.53;;;22.97;49.70
17254;BME280;32542;52.832;13.816;2022-07-19T00:04:49;101946.53;;;22.97;49.60
17254;BME280;32542;52.832;13.816;2022-07-19T00:07:52;101949.22;;;22.97;49.59
17254;BME280;32542;52.832;13.816;2022-07-19T00:10:55;101947.56;;;22.94;49.76
17254;BME280;32542;52.832;13.816;2022-07-19T00:13:58;101946.69;;;22.94;49.64
17254;BME280;32542;52.832;13.816;2022-07-19T00:17:01;101951.13;;;22.93;49.59
17254;BME280;32542;52.832;13.816;2022-07-19T00:20:07;101947.56;;;22.94;49.67
17254;BME280;32542;52.832;13.816;2022-07-19T00:23:10;101953.75;;;22.95;49.56
17254;BME280;32542;52.832;13.816;2022-07-19T00:26:13;101957.28;;;22.95;49.54
17254;BME280;32542;52.832;13.816;2022-07-19T00:29:16;101956.41;;;22.95;49.46
17254;BME280;32542;52.832;13.816;2022-07-19T00:32:19;101957.34;;;22.94;49.66
17254;BME280;32542;52.832;13.816;2022-07-19T00:35:24;101959.97;;;22.95;49.36
17254;BME280;32542;52.832;13.816;2022-07-19T00:38:27;101950.16;;;22.96;49.45
17254;BME280;32542;52.832;13.816;2022-07-19T00:41:30;101952.91;;;22.94;49.19
17254;BME280;32542;52.832;13.816;2022-07-19T00:44:33;101951.13;;;22.93;49.24
17254;BME280;32542;52.832;13.816;2022-07-19T00:47:36;101951.13;;;22.93;49.16
17254;BME280;32542;52.832;13.816;2022-07-19T00:50:40;101958.28;;;22.93;49.29
17254;BME280;32542;52.832;13.816;2022-07-19T00:53:44;101953.97;;;22.89;49.39
17254;BME280;32542;52.832;13.816;2022-07-19T00:56:49;101957.59;;;22.88;49.38
17254;BME280;32542;52.832;13.816;2022-07-19T00:59:53;101958.44;;;22.88;49.10
17254;BME280;32542;52.832;13.816;2022-07-19T01:02:58;101959.31;;;22.89;49.11
17254;BME280;32542;52.832;13.816;2022-07-19T01:06:02;101963.75;;;22.90;49.03
17254;BME280;32542;52.832;13.816;2022-07-19T01:09:05;101961.97;;;22.90;49.14
17254;BME280;32542;52.832;13.816;2022-07-19T01:12:09;101963.69;;;22.91;49.03
17254;BME280;32542;52.832;13.816;2022-07-19T01:15:14;101971.75;;;22.90;48.96
17254;BME280;32542;52.832;13.816;2022-07-19T01:18:18;101963.75;;;22.90;49.06
17254;BME280;32542;52.832;13.816;2022-07-19T01:21:23;101970.00;;;22.89;49.16
17254;BME280;32542;52.832;13.816;2022-07-19T01:24:26;101966.53;;;22.87;49.01
17254;BME280;32542;52.832;13.816;2022-07-19T01:27:29;101966.66;;;22.84;49.07
17254;BME280;32542;52.832;13.816;2022-07-19T01:30:33;101972.97;;;22.81;49.34
17254;BME280;32542;52.832;13.816;2022-07-19T01:33:40;101967.56;;;22.83;49.15
17254;BME280;32542;52.832;13.816;2022-07-19T01:36:44;101973.88;;;22.80;49.30
17254;BME280;32542;52.832;13.816;2022-07-19T01:39:47;101972.19;;;22.78;49.35
17254;BME280;32542;52.832;13.816;2022-07-19T01:42:50;101970.38;;;22.80;49.20
17254;BME280;32542;52.832;13.816;2022-07-19T01:45:53;101959.56;;;22.83;49.05
17254;BME280;32542;52.832;13.816;2022-07-19T01:48:57;101957.75;;;22.83;49.06
17254;BME280;32542;52.832;13.816;2022-07-19T01:52:01;101949.81;;;22.82;48.99
17254;BME280;32542;52.832;13.816;2022-07-19T01:55:05;101950.66;;;22.82;48.83
17254;BME280;32542;52.832;13.816;2022-07-19T01:58:08;101948.88;;;22.83;48.93
17254;BME280;32542;52.832;13.816;2022-07-19T02:01:11;101941.91;;;22.79;49.15
17254;BME280;32542;52.832;13.816;2022-07-19T02:04:14;101945.47;;;22.79;49.13
17254;BME280;32542;52.832;13.816;2022-07-19T02:07:18;101949.19;;;22.75;49.18
17254;BME280;32542;52.832;13.816;2022-07-19T02:10:22;101946.66;;;22.71;49.32
17254;BME280;32542;52.832;13.816;2022-07-19T02:13:25;101960.91;;;22.71;49.44
17254;BME280;32542;52.832;13.816;2022-07-19T02:16:28;101950.25;;;22.70;49.32
17254;BME280;32542;52.832;13.816;2022-07-19T02:19:31;101952.94;;;22.70;49.19
17254;BME280;32542;52.832;13.816;2022-07-19T02:22:36;101946.69;;;22.69;49.21
17254;BME280;32542;52.832;13.816;2022-07-19T02:25:38;101945.84;;;22.69;49.17
17254;BME280;32542;52.832;13.816;2022-07-19T02:28:41;101949.56;;;22.65;49.57
17254;BME280;32542;52.832;13.816;2022-07-19T02:31:44;101941.59;;;22.63;49.43
17254;BME280;32542;52.832;13.816;2022-07-19T02:34:47;101936.16;;;22.66;49.25
17254;BME280;32542;52.832;13.816;2022-07-19T02:37:52;101934.28;;;22.68;49.11
17254;BME280;32542;52.832;13.816;2022-07-19T02:40:55;101942.31;;;22.68;49.03
17254;BME280;32542;52.832;13.816;2022-07-19T02:43:58;101944.00;;;22.71;48.76
17254;BME280;32542;52.832;13.816;2022-07-19T02:47:01;101933.19;;;22.74;48.88
17254;BME280;32542;52.832;13.816;2022-07-19T02:50:05;101941.25;;;22.72;48.78
17254;BME280;32542;52.832;13.816;2022-07-19T02:53:09;101944.09;;;22.68;49.04
17254;BME280;32542;52.832;13.816;2022-07-19T02:56:12;101945.97;;;22.66;49.11
17254;BME280;32542;52.832;13.816;2022-07-19T02:59:16;101954.84;;;22.66;49.30
17254;BME280;32542;52.832;13.816;2022-07-19T03:02:19;101955.72;;;22.67;48.96
17254;BME280;32542;52.832;13.816;2022-07-19T03:05:21;101947.72;;;22.67;48.97
17254;BME280;32542;52.832;13.816;2022-07-19T03:08:26;101953.16;;;22.64;49.36
17254;BME280;32542;52.832;13.816;2022-07-19T03:11:29;101937.94;;;22.66;49.11
17254;BME280;32542;52.832;13.816;2022-07-19T03:14:32;101951.44;;;22.63;49.15
17254;BME280;32542;52.832;13.816;2022-07-19T03:17:35;101941.72;;;22.60;49.07
17254;BME280;32542;52.832;13.816;2022-07-19T03:20:38;101941.66;;;22.62;48.94
17254;BME280;32542;52.832;13.816;2022-07-19T03:23:42;101942.47;;;22.64;48.84
17254;BME280;32542;52.832;13.816;2022-07-19T03:26:45;101943.41;;;22.63;48.83
17254;BME280;32542;52.832;13.816;2022-07-19T03:29:48;101942.59;;;22.61;48.87
17254;BME280;32542;52.832;13.816;2022-07-19T03:32:50;101936.38;;;22.60;48.83
17254;BME280;32542;52.832;13.816;2022-07-19T03:35:54;101951.53;;;22.60;48.85
17254;BME280;32542;52.832;13.816;2022-07-19T03:38:58;101945.34;;;22.58;48.88
17254;BME280;32542;52.832;13.816;2022-07-19T03:42:01;101947.94;;;22.61;48.76
17254;BME280;32542;52.832;13.816;2022-07-19T03:45:04;101947.88;;;22.62;48.58
17254;BME280;32542;52.832;13.816;2022-07-19T03:48:07;101949.59;;;22.63;48.65
17254;BME280;32542;52.832;13.816;2022-07-19T03:51:11;101948.69;;;22.64;48.43
17254;BME280;32542;52.832;13.816;2022-07-19T03:54:15;101950.47;;;22.64;48.62
17254;BME280;32542;52.832;13.816;2022-07-19T03:57:18;101934.63;;;22.59;48.88
17254;BME280;32542;52.832;13.816;2022-07-19T04:00:21;101936.50;;;22.56;49.13
17254;BME280;32542;52.832;13.816;2022-07-19T04:03:24;101939.28;;;22.52;49.25
17254;BME280;32542;52.832;13.816;2022-07-19T04:06:27;101938.44;;;22.52;49.29
17254;BME280;32542;52.832;13.816;2022-07-19T04:09:32;101934.88;;;22.51;48.97
17254;BME280;32542;52.832;13.816;2022-07-19T04:12:35;101934.81;;;22.53;48.95
17254;BME280;32542;52.832;13.816;2022-07-19T04:15:37;101932.97;;;22.55;48.73
17254;BME280;32542;52.832;13.816;2022-07-19T04:18:47;101944.44;;;22.59;48.77
17254;BME280;32542;52.832;13.816;2022-07-19T04:21:50;101949.78;;;22.59;48.68
17254;BME280;32542;52.832;13.816;2022-07-19T04:24:54;101943.53;;;22.58;48.86
17254;BME280;32542;52.832;13.816;2022-07-19T04:27:57;101945.34;;;22.58;48.74
17254;BME280;32542;52.832;13.816;2022-07-19T04:31:00;101941.84;;;22.56;48.95
17254;BME280;32542;52.832;13.816;2022-07-19T04:34:03;101951.66;;;22.55;48.96
17254;BME280;32542;52.832;13.816;2022-07-19T04:37:06;101955.31;;;22.52;48.91
17254;BME280;32542;52.832;13.816;2022-07-19T04:40:10;101949.16;;;22.50;48.99
17254;BME280;32542;52.832;13.816;2022-07-19T04:43:13;101951.00;;;22.48;49.08
17254;BME280;32542;52.832;13.816;2022-07-19T04:46:18;101956.34;;;22.48;49.20
17254;BME280;32542;52.832;13.816;2022-07-19T04:49:21;101968.72;;;22.51;49.07
17254;BME280;32542;52.832;13.816;2022-07-19T04:52:24;101964.25;;;22.51;49.00
17254;BME280;32542;52.832;13.816;2022-07-19T04:55:28;101955.31;;;22.52;48.95
17254;BME280;32542;52.832;13.816;2022-07-19T04:58:31;101950.91;;;22.51;49.08
17254;BME280;32542;52.832;13.816;2022-07-19T05:01:35;101963.38;;;22.51;49.10
17254;BME280;32542;52.832;13.816;2022-07-19T05:04:39;101960.72;;;22.51;49.22
17254;BME280;32542;52.832;13.816;2022-07-19T05:07:42;101958.03;;;22.51;48.99
17254;BME280;32542;52.832;13.816;2022-07-19T05:10:47;101953.56;;;22.51;49.00
17254;BME280;32542;52.832;13.816;2022-07-19T05:13:50;101948.22;;;22.51;48.95
17254;BME280;32542;52.832;13.816;2022-07-19T05:16:53;101950.91;;;22.51;48.96
17254;BME280;32542;52.832;13.816;2022-07-19T05:19:56;101942.03;;;22.51;49.05
17254;BME280;32542;52.832;13.816;2022-07-19T05:22:58;101943.94;;;22.47;49.32
17254;BME280;32542;52.832;13.816;2022-07-19T05:26:03;101946.69;;;22.44;49.41
17254;BME280;32542;52.832;13.816;2022-07-19T05:29:06;101950.41;;;22.40;49.48
17254;BME280;32542;52.832;13.816;2022-07-19T05:32:09;101948.66;;;22.39;49.66
17254;BME280;32542;52.832;13.816;2022-07-19T05:35:12;101949.53;;;22.40;49.76
17254;BME280;32542;52.832;13.816;2022-07-19T05:38:15;101945.06;;;22.40;49.75
17254;BME280;32542;52.832;13.816;2022-07-19T05:41:19;101948.63;;;22.41;49.64
17254;BME280;32542;52.832;13.816;2022-07-19T05:44:35;101954.84;;;22.41;49.72
17254;BME280;32542;52.832;13.816;2022-07-19T05:47:38;101953.91;;;22.42;49.52
17254;BME280;32542;52.832;13.816;2022-07-19T05:50:41;101953.00;;;22.43;49.67
17254;BME280;32542;52.832;13.816;2022-07-19T05:53:44;101957.38;;;22.44;49.66
17254;BME280;32542;52.832;13.816;2022-07-19T05:56:48;101952.94;;;22.45;49.75
17254;BME280;32542;52.832;13.816;2022-07-19T05:59:52;101955.53;;;22.46;49.60
17254;BME280;32542;52.832;13.816;2022-07-19T06:02:55;101958.19;;;22.46;49.57
17254;BME280;32542;52.832;13.816;2022-07-19T06:05:58;101966.22;;;22.46;49.58
17254;BME280;32542;52.832;13.816;2022-07-19T06:09:02;101968.81;;;22.48;49.47
17254;BME280;32542;52.832;13.816;2022-07-19T06:12:08;101954.66;;;22.46;49.74
17254;BME280;32542;52.832;13.816;2022-07-19T06:15:11;101968.94;;;22.45;49.72
17254;BME280;32542;52.832;13.816;2022-07-19T06:18:14;101963.53;;;22.46;49.68
17254;BME280;32542;52.832;13.816;2022-07-19T06:21:19;101964.41;;;22.47;49.56
17254;BME280;32542;52.832;13.816;2022-07-19T06:24:22;101967.09;;;22.47;49.68
17254;BME280;32542;52.832;13.816;2022-07-19T06:27:27;101969.69;;;22.48;49.46
17254;BME280;32542;52.832;13.816;2022-07-19T06:30:30;101969.69;;;22.48;49.50
17254;BME280;32542;52.832;13.816;2022-07-19T06:33:33;101974.16;;;22.48;49.54
17254;BME280;32542;52.832;13.816;2022-07-19T06:36:36;101971.47;;;22.48;49.61
17254;BME280;32542;52.832;13.816;2022-07-19T06:39:39;101967.91;;;22.49;49.90
17254;BME280;32542;52.832;13.816;2022-07-19T06:42:43;101967.00;;;22.50;49.97
17254;BME280;32542;52.832;13.816;2022-07-19T06:45:46;101967.81;;;22.52;49.66
17254;BME280;32542;52.832;13.816;2022-07-19T06:48:49;101966.84;;;22.53;49.75
17254;BME280;32542;52.832;13.816;2022-07-19T06:51:52;101962.41;;;22.53;49.57
17254;BME280;32542;52.832;13.816;2022-07-19T06:54:55;101959.72;;;22.53;49.36
17254;BME280;32542;52.832;13.816;2022-07-19T06:58:00;101956.09;;;22.56;49.40
17254;BME280;32542;52.832;13.816;2022-07-19T07:01:03;101955.22;;;22.56;49.29
17254;BME280;32542;52.832;13.816;2022-07-19T07:04:06;101957.81;;;22.57;49.54
17254;BME280;32542;52.832;13.816;2022-07-19T07:07:10;101962.22;;;22.60;49.59
17254;BME280;32542;52.832;13.816;2022-07-19T07:10:13;101963.09;;;22.60;49.41
17254;BME280;32542;52.832;13.816;2022-07-19T07:13:17;101953.28;;;22.61;49.35
17254;BME280;32542;52.832;13.816;2022-07-19T07:16:21;101953.28;;;22.61;49.77
17254;BME280;32542;52.832;13.816;2022-07-19T07:19:24;101956.00;;;22.59;49.52
17254;BME280;32542;52.832;13.816;2022-07-19T07:22:27;101956.88;;;22.60;49.33
17254;BME280;32542;52.832;13.816;2022-07-19T07:25:30;101958.63;;;22.61;49.45
17254;BME280;32542;52.832;13.816;2022-07-19T07:28:35;101955.97;;;22.61;49.42
17254;BME280;32542;52.832;13.816;2022-07-19T07:31:38;101957.63;;;22.63;49.29
17254;BME280;32542;52.832;13.816;2022-07-19T07:34:41;101958.50;;;22.64;49.19
17254;BME280;32542;52.832;13.816;2022-07-19T07:37:44;101958.50;;;22.64;49.15
17254;BME280;32542;52.832;13.816;2022-07-19T07:40:47;101961.09;;;22.65;49.32
17254;BME280;32542;52.832;13.816;2022-07-19T07:43:56;101962.78;;;22.68;49.21
17254;BME280;32542;52.832;13.816;2022-07-19T07:46:58;101962.72;;;22.69;48.48
17254;BME280;32542;52.832;13.816;2022-07-19T07:50:03;101967.09;;;22.72;48.17
17254;BME280;32542;52.832;13.816;2022-07-19T07:53:06;101967.00;;;22.75;48.10
17254;BME280;32542;52.832;13.816;2022-07-19T07:56:09;101971.34;;;22.77;47.84
17254;BME280;32542;52.832;13.816;2022-07-19T07:59:18;101969.59;;;22.76;47.88
17254;BME280;32542;52.832;13.816;2022-07-19T08:02:21;101971.44;;;22.74;48.02
17254;BME280;32542;52.832;13.816;2022-07-19T08:05:25;101967.97;;;22.72;48.41
17254;BME280;32542;52.832;13.816;2022-07-19T08:08:28;101967.09;;;22.72;49.59
17254;BME280;32542;52.832;13.816;2022-07-19T08:11:31;101963.50;;;22.73;50.17
17254;BME280;32542;52.832;13.816;2022-07-19T08:14:36;101969.66;;;22.75;50.15
17254;BME280;32542;52.832;13.816;2022-07-19T08:17:38;101968.69;;;22.77;50.26
17254;BME280;32542;52.832;13.816;2022-07-19T08:20:41;101958.91;;;22.76;50.00
17254;BME280;32542;52.832;13.816;2022-07-19T08:23:44;101970.47;;;22.77;50.26
17254;BME280;32542;52.832;13.816;2022-07-19T08:26:47;101964.25;;;22.76;50.58
17254;BME280;32542;52.832;13.816;2022-07-19T08:29:52;101968.72;;;22.76;50.52
17254;BME280;32542;52.832;13.816;2022-07-19T08:32:55;101952.69;;;22.76;50.71
17254;BME280;32542;52.832;13.816;2022-07-19T08:35:58;101952.69;;;22.76;50.85
17254;BME280;32542;52.832;13.816;2022-07-19T08:39:02;101953.63;;;22.75;50.57
17254;BME280;32542;52.832;13.816;2022-07-19T08:42:06;101945.63;;;22.75;50.80
17254;BME280;32542;52.832;13.816;2022-07-19T08:45:10;101949.22;;;22.74;50.97
17254;BME280;32542;52.832;13.816;2022-07-19T08:48:14;101952.81;;;22.73;51.04
17254;BME280;32542;52.832;13.816;2022-07-19T08:51:18;101964.38;;;22.73;51.11
17254;BME280;32542;52.832;13.816;2022-07-19T08:54:22;101960.84;;;22.73;51.31
17254;BME280;32542;52.832;13.816;2022-07-19T08:57:25;101963.50;;;22.73;51.55
17254;BME280;32542;52.832;13.816;2022-07-19T09:00:47;101952.81;;;22.73;51.44
17254;BME280;32542;52.832;13.816;2022-07-19T09:04:08;101944.81;;;22.73;50.85
17254;BME280;32542;52.832;13.816;2022-07-19T09:07:18;101939.47;;;22.73;50.83
17254;BME280;32542;52.832;13.816;2022-07-19T09:10:22;101940.38;;;22.72;50.86
17254;BME280;32542;52.832;13.816;2022-07-19T09:13:25;101940.38;;;22.72;50.76
17254;BME280;32542;52.832;13.816;2022-07-19T09:16:47;101944.81;;;22.73;50.66
17254;BME280;32542;52.832;13.816;2022-07-19T09:19:51;101949.28;;;22.72;50.48
17254;BME280;32542;52.832;13.816;2022-07-19T09:22:54;101934.13;;;22.73;50.57
17254;BME280;32542;52.832;13.816;2022-07-19T09:25:59;101931.47;;;22.73;50.43
17254;BME280;32542;52.832;13.816;2022-07-19T09:29:16;101930.56;;;22.72;50.59
17254;BME280;32542;52.832;13.816;2022-07-19T09:32:22;101931.47;;;22.73;50.72
17254;BME280;32542;52.832;13.816;2022-07-19T09:35:35;101934.13;;;22.73;50.32
17254;BME280;32542;52.832;13.816;2022-07-19T09:38:38;101935.91;;;22.72;50.34
17254;BME280;32542;52.832;13.816;2022-07-19T09:41:54;101926.13;;;22.73;50.24
17254;BME280;32542;52.832;13.816;2022-07-19T09:44:59;101927.84;;;22.74;50.25
17254;BME280;32542;52.832;13.816;2022-07-19T09:48:04;101921.59;;;22.75;50.28
17254;BME280;32542;52.832;13.816;2022-07-19T09:51:07;101919.78;;;22.75;50.26
17254;BME280;32542;52.832;13.816;2022-07-19T09:54:12;101915.31;;;22.76;50.57
17254;BME280;32542;52.832;13.816;2022-07-19T09:57:15;101904.63;;;22.76;50.36
17254;BME280;32542;52.832;13.816;2022-07-19T10:00:24;101908.25;;;22.75;50.24
17254;BME280;32542;52.832;13.816;2022-07-19T10:03:29;101916.19;;;22.76;50.11
17254;BME280;32542;52.832;13.816;2022-07-19T10:06:33;101910.84;;;22.76;50.27
17254;BME280;32542;52.832;13.816;2022-07-19T10:09:36;101904.63;;;22.76;50.28
17254;BME280;32542;52.832;13.816;2022-07-19T10:12:41;101900.22;;;22.75;50.14
17254;BME280;32542;52.832;13.816;2022-07-19T10:15:47;101904.63;;;22.76;50.27
17254;BME280;32542;52.832;13.816;2022-07-19T10:19:02;101899.28;;;22.76;50.26
17254;BME280;32542;52.832;13.816;2022-07-19T10:22:09;101893.94;;;22.76;50.35
17254;BME280;32542;52.832;13.816;2022-07-19T10:25:14;101891.25;;;22.76;50.26
17254;BME280;32542;52.832;13.816;2022-07-19T10:28:36;101889.47;;;22.76;50.18
17254;BME280;32542;52.832;13.816;2022-07-19T10:32:03;101879.66;;;22.77;50.20
17254;BME280;32542;52.832;13.816;2022-07-19T10:35:16;101876.13;;;22.76;50.39
17254;BME280;32542;52.832;13.816;2022-07-19T10:38:19;101880.56;;;22.77;50.38
17254;BME280;32542;52.832;13.816;2022-07-19T10:41:25;101869.88;;;22.77;50.31
17254;BME280;32542;52.832;13.816;2022-07-19T10:44:29;101868.91;;;22.78;50.15
17254;BME280;32542;52.832;13.816;2022-07-19T10:48:07;101865.38;;;22.78;50.00
17254;BME280;32542;52.832;13.816;2022-07-19T10:51:27;101862.69;;;22.78;50.15
17254;BME280;32542;52.832;13.816;2022-07-19T10:54:33;101859.13;;;22.79;49.97
17254;BME280;32542;52.832;13.816;2022-07-19T10:57:37;101856.44;;;22.79;50.13
17254;BME280;32542;52.832;13.816;2022-07-19T11:00:42;101854.69;;;22.78;50.16
17254;BME280;32542;52.832;13.816;2022-07-19T11:03:46;101850.22;;;22.78;49.98
17254;BME280;32542;52.832;13.816;2022-07-19T11:06:51;101856.44;;;22.79;50.05
17254;BME280;32542;52.832;13.816;2022-07-19T11:09:56;101857.31;;;22.79;50.26
17254;BME280;32542;52.832;13.816;2022-07-19T11:13:00;101863.53;;;22.80;50.40
17254;BME280;32542;52.832;13.816;2022-07-19T11:16:03;101857.34;;;22.78;50.44
17254;BME280;32542;52.832;13.816;2022-07-19T11:19:08;101851.09;;;22.79;50.28
17254;BME280;32542;52.832;13.816;2022-07-19T11:22:12;101846.63;;;22.79;50.17
17254;BME280;32542;52.832;13.816;2022-07-19T11:25:22;101844.84;;;22.80;50.55
17254;BME280;32542;52.832;13.816;2022-07-19T11:28:25;101836.84;;;22.80;50.83
17254;BME280;32542;52.832;13.816;2022-07-19T11:31:28;101833.28;;;22.79;51.08
17254;BME280;32542;52.832;13.816;2022-07-19T11:34:31;101835.00;;;22.80;50.93
17254;BME280;32542;52.832;13.816;2022-07-19T11:37:37;101834.16;;;22.80;50.64
17254;BME280;32542;52.832;13.816;2022-07-19T11:40:41;101835.88;;;22.81;50.87
17254;BME280;32542;52.832;13.816;2022-07-19T11:43:44;101833.22;;;22.81;50.97
17254;BME280;32542;52.832;13.816;2022-07-19T11:46:56;101827.88;;;22.81;51.05
17254;BME280;32542;52.832;13.816;2022-07-19T11:50:03;101833.22;;;22.81;51.25
17254;BME280;32542;52.832;13.816;2022-07-19T11:53:07;101833.22;;;22.81;51.20
17254;BME280;32542;52.832;13.816;2022-07-19T11:56:19;101831.41;;;22.81;50.52
17254;BME280;32542;52.832;13.816;2022-07-19T11:59:22;101826.97;;;22.82;50.32
17254;BME280;32542;52.832;13.816;2022-07-19T12:02:25;101824.28;;;22.82;50.41
17254;BME280;32542;52.832;13.816;2022-07-19T12:05:30;101821.63;;;22.82;50.39
17254;BME280;32542;52.832;13.816;2022-07-19T12:08:41;101823.34;;;22.83;50.26
17254;BME280;32542;52.832;13.816;2022-07-19T12:11:46;101822.47;;;22.82;50.16
17254;BME280;32542;52.832;13.816;2022-07-19T12:15:05;101825.09;;;22.84;50.32
17254;BME280;32542;52.832;13.816;2022-07-19T12:18:08;101821.47;;;22.85;50.21
17254;BME280;32542;52.832;13.816;2022-07-19T12:21:25;101820.59;;;22.84;50.26
17254;BME280;32542;52.832;13.816;2022-07-19T12:24:30;101820.59;;;22.84;50.75
17254;BME280;32542;52.832;13.816;2022-07-19T12:27:34;101821.47;;;22.85;51.19
17254;BME280;32542;52.832;13.816;2022-07-19T12:30:37;101819.69;;;22.85;51.41
17254;BME280;32542;52.832;13.816;2022-07-19T12:33:40;101818.81;;;22.85;51.61
17254;BME280;32542;52.832;13.816;2022-07-19T12:36:44;101815.22;;;22.86;51.40
17254;BME280;32542;52.832;13.816;2022-07-19T12:39:58;101818.81;;;22.85;51.16
17254;BME280;32542;52.832;13.816;2022-07-19T12:43:02;101812.53;;;22.86;50.54
17254;BME280;32542;52.832;13.816;2022-07-19T12:46:05;101809.88;;;22.86;50.52
17254;BME280;32542;52.832;13.816;2022-07-19T12:49:09;101804.53;;;22.86;50.39
17254;BME280;32542;52.832;13.816;2022-07-19T12:52:12;101799.19;;;22.86;50.13
17254;BME280;32542;52.832;13.816;2022-07-19T12:55:17;101807.13;;;22.87;50.55
17254;BME280;32542;52.832;13.816;2022-07-19T12:58:20;101808.84;;;22.88;50.28
17254;BME280;32542;52.832;13.816;2022-07-19T13:01:38;101804.38;;;22.89;50.44
17254;BME280;32542;52.832;13.816;2022-07-19T13:04:42;101808.81;;;22.90;50.55
17254;BME280;32542;52.832;13.816;2022-07-19T13:07:46;101806.16;;;22.90;50.60
17254;BME280;32542;52.832;13.816;2022-07-19T13:10:53;101800.81;;;22.90;50.24
17254;BME280;32542;52.832;13.816;2022-07-19T13:13:56;101792.78;;;22.90;50.20
17254;BME280;32542;52.832;13.816;2022-07-19T13:17:00;101797.19;;;22.91;50.33
17254;BME280;32542;52.832;13.816;2022-07-19T13:20:04;101790.13;;;22.90;50.11
17254;BME280;32542;52.832;13.816;2022-07-19T13:23:09;101787.44;;;22.90;50.20
17254;BME280;32542;52.832;13.816;2022-07-19T13:26:13;101791.03;;;22.89;50.23
17254;BME280;32542;52.832;13.816;2022-07-19T13:29:16;101788.31;;;22.90;50.13
17254;BME280;32542;52.832;13.816;2022-07-19T13:32:19;101795.47;;;22.90;50.25
17254;BME280;32542;52.832;13.816;2022-07-19T13:35:23;101791.84;;;22.91;50.30
17254;BME280;32542;52.832;13.816;2022-07-19T13:38:26;101789.16;;;22.91;50.25
17254;BME280;32542;52.832;13.816;2022-07-19T13:41:31;101781.16;;;22.91;50.22
17254;BME280;32542;52.832;13.816;2022-07-19T13:44:34;101778.50;;;22.91;50.16
17254;BME280;32542;52.832;13.816;2022-07-19T13:47:37;101777.56;;;22.92;50.46
17254;BME280;32542;52.832;13.816;2022-07-19T13:50:40;101774.03;;;22.91;50.21
17254;BME280;32542;52.832;13.816;2022-07-19T13:53:43;101771.28;;;22.93;50.15
17254;BME280;32542;52.832;13.816;2022-07-19T13:56:53;101771.28;;;22.93;50.12
17254;BME280;32542;52.832;13.816;2022-07-19T13:59:56;101771.28;;;22.93;50.22
17254;BME280;32542;52.832;13.816;2022-07-19T14:02:59;101774.81;;;22.93;50.06
17254;BME280;32542;52.832;13.816;2022-07-19T14:06:02;101774.81;;;22.93;50.29
17254;BME280;32542;52.832;13.816;2022-07-19T14:09:05;101778.44;;;22.92;50.12
17254;BME280;32542;52.832;13.816;2022-07-19T14:12:10;101774.81;;;22.93;50.08
17254;BME280;32542;52.832;13.816;2022-07-19T14:15:13;101768.59;;;22.93;50.07
17254;BME280;32542;52.832;13.816;2022-07-19T14:18:17;101771.28;;;22.93;50.06
17254;BME280;32542;52.832;13.816;2022-07-19T14:21:21;101770.38;;;22.94;50.26
17254;BME280;32542;52.832;13.816;2022-07-19T14:24:24;101753.53;;;22.92;50.11
17254;BME280;32542;52.832;13.816;2022-07-19T14:27:28;101754.34;;;22.94;50.11
17254;BME280;32542;52.832;13.816;2022-07-19T14:30:31;101755.22;;;22.94;50.26
17254;BME280;32542;52.832;13.816;2022-07-19T14:33:34;101749.88;;;22.94;50.15
17254;BME280;32542;52.832;13.816;2022-07-19T14:36:38;101745.38;;;22.95;50.19
17254;BME280;32542;52.832;13.816;2022-07-19T14:39:41;101747.13;;;22.96;50.10
17254;BME280;32542;52.832;13.816;2022-07-19T14:42:45;101756.84;;;22.97;50.18
17254;BME280;32542;52.832;13.816;2022-07-19T14:45:48;101747.13;;;22.96;50.17
17254;BME280;32542;52.832;13.816;2022-07-19T14:48:51;101757.81;;;22.96;49.93
17254;BME280;32542;52.832;13.816;2022-07-19T14:51:54;101750.59;;;22.98;50.22
17254;BME280;32542;52.832;13.816;2022-07-19T14:54:57;101755.06;;;22.97;50.08
17254;BME280;32542;52.832;13.816;2022-07-19T14:58:01;101752.41;;;22.97;50.23
17254;BME280;32542;52.832;13.816;2022-07-19T15:01:04;101748.84;;;22.97;50.06
17254;BME280;32542;52.832;13.816;2022-07-19T15:04:08;101739.03;;;22.97;50.13
17254;BME280;32542;52.832;13.816;2022-07-19T15:07:11;101739.03;;;22.97;50.15
17254;BME280;32542;52.832;13.816;2022-07-19T15:10:14;101745.25;;;22.98;49.95
17254;BME280;32542;52.832;13.816;2022-07-19T15:13:18;101748.81;;;22.98;50.02
17254;BME280;32542;52.832;13.816;2022-07-19T15:16:22;101751.47;;;22.98;50.15
17254;BME280;32542;52.832;13.816;2022-07-19T15:19:25;101740.78;;;22.98;50.03
17254;BME280;32542;52.832;13.816;2022-07-19T15:22:28;101743.38;;;23.00;49.94
17254;BME280;32542;52.832;13.816;2022-07-19T15:25:31;101738.91;;;23.00;50.14
17254;BME280;32542;52.832;13.816;2022-07-19T15:28:37;101734.47;;;23.01;49.90
17254;BME280;32542;52.832;13.816;2022-07-19T15:31:40;101730.03;;;23.00;49.90
17254;BME280;32542;52.832;13.816;2022-07-19T15:34:43;101735.31;;;23.01;50.11
17254;BME280;32542;52.832;13.816;2022-07-19T15:37:46;101729.97;;;23.01;49.78
17254;BME280;32542;52.832;13.816;2022-07-19T15:40:49;101725.50;;;23.02;50.09
17254;BME280;32542;52.832;13.816;2022-07-19T15:43:53;101725.50;;;23.02;49.90
17254;BME280;32542;52.832;13.816;2022-07-19T15:46:56;101718.44;;;23.01;49.90
17254;BME280;32542;52.832;13.816;2022-07-19T15:49:59;101727.25;;;23.03;49.86
17254;BME280;32542;52.832;13.816;2022-07-19T15:53:02;101723.63;;;23.04;49.95